Time;durP1;ratioP1;P1;durP2;ratioP2;P2;SDS_P1;SDS_P2;PMS_P1;PMS_P2;Temp;Humidity;BMP_temperature;BMP_pressure;BME280_temperature;BME280_humidity;BME280_pressure;Samples;Min_cycle;Max_cycle;Signal;HPM_P1;HPM_P2
2021/07/29 00:00:30;;;;;;;24.65;9.55;;;;;;;29.92;34.72;93961.22;4982777;28;20033;-77
2021/07/29 00:02:56;;;;;;;31.00;7.72;;;;;;;30.07;35.60;93977.00;4988339;28;20038;-76
2021/07/29 00:05:21;;;;;;;24.45;8.93;;;;;;;30.04;34.94;93982.50;4988989;28;20025;-77
2021/07/29 00:07:50;;;;;;;23.85;8.43;;;;;;;29.97;36.01;93991.53;4986553;28;20049;-76
2021/07/29 00:10:16;;;;;;;22.73;8.98;;;;;;;29.81;36.09;93998.72;4990375;28;20386;-78
2021/07/29 00:12:41;;;;;;;30.85;8.07;;;;;;;29.46;36.17;93989.72;4987925;28;20584;-77
2021/07/29 00:15:12;;;;;;;19.13;7.93;;;;;;;29.13;35.84;93987.63;4989708;28;20314;-77
2021/07/29 00:20:23;;;;;;;21.75;7.82;;;;;;;29.16;35.97;94003.16;4991156;28;20041;-78
2021/07/29 00:22:53;;;;;;;23.70;8.43;;;;;;;29.10;35.40;93983.75;4982454;28;20039;-78
2021/07/29 00:25:23;;;;;;;17.75;7.68;;;;;;;29.27;36.22;93982.09;4988733;28;20334;-77
2021/07/29 00:27:49;;;;;;;24.88;7.43;;;;;;;29.28;36.14;93972.72;4986221;28;20623;-77
2021/07/29 00:30:17;;;;;;;18.65;7.82;;;;;;;29.34;35.23;93962.19;4987194;28;20038;-77
2021/07/29 00:32:43;;;;;;;26.70;8.00;;;;;;;29.44;35.44;93983.09;4982578;28;20466;-77
2021/07/29 00:35:14;;;;;;;25.48;7.55;;;;;;;29.42;35.17;93966.41;4989046;28;20042;-77
2021/07/29 00:37:46;;;;;;;29.80;8.35;;;;;;;29.40;34.76;93969.53;4989649;28;20497;-77
2021/07/29 00:40:12;;;;;;;19.52;6.93;;;;;;;29.43;34.58;93948.88;4988224;28;20034;-78
2021/07/29 00:42:38;;;;;;;19.92;8.13;;;;;;;29.31;34.26;93955.63;4985712;28;20948;-77
2021/07/29 00:45:03;;;;;;;24.00;7.97;;;;;;;29.25;34.84;93951.75;4990090;28;20117;-77
2021/07/29 00:47:29;;;;;;;21.35;8.02;;;;;;;29.35;34.48;93940.03;4986562;28;20056;-77
2021/07/29 00:49:54;;;;;;;23.73;7.40;;;;;;;29.42;35.41;93947.38;4990051;28;20046;-76
2021/07/29 00:52:21;;;;;;;21.27;7.35;;;;;;;29.54;35.73;93947.63;4984388;28;21180;-77
2021/07/29 00:54:48;;;;;;;17.38;7.70;;;;;;;29.58;35.36;93951.06;4985456;28;20042;-76
2021/07/29 00:57:13;;;;;;;20.80;7.72;;;;;;;29.59;35.17;93939.00;4985812;28;20045;-77
2021/07/29 00:59:39;;;;;;;22.20;7.65;;;;;;;29.70;35.21;93938.88;4989640;28;20034;-77
2021/07/29 01:02:05;;;;;;;19.35;7.82;;;;;;;29.69;35.89;93935.38;4987876;28;20044;-77
2021/07/29 01:04:34;;;;;;;24.35;7.45;;;;;;;29.83;35.57;93937.16;4980968;28;20046;-77
2021/07/29 01:06:59;;;;;;;23.50;8.63;;;;;;;29.77;36.20;93948.91;4983899;28;20404;-77
2021/07/29 01:09:25;;;;;;;26.02;8.70;;;;;;;29.65;34.46;93945.56;4985867;28;20044;-78
2021/07/29 01:11:50;;;;;;;22.65;7.63;;;;;;;29.33;36.15;93953.25;4989822;28;20555;-77
2021/07/29 01:14:17;;;;;;;17.98;7.95;;;;;;;29.15;37.03;93950.69;4989862;28;20134;-76
2021/07/29 01:16:43;;;;;;;22.38;6.63;;;;;;;29.06;38.28;93955.03;4997264;28;20034;-77
2021/07/29 01:19:10;;;;;;;16.88;7.10;;;;;;;29.09;37.68;93963.16;4983515;28;20456;-77
2021/07/29 01:21:37;;;;;;;23.70;8.60;;;;;;;29.12;37.94;93950.72;4990014;28;20590;-78
2021/07/29 01:24:03;;;;;;;16.23;8.20;;;;;;;28.99;37.41;93925.94;4985917;28;20025;-76
2021/07/29 01:26:29;;;;;;;22.23;8.35;;;;;;;29.08;38.23;93930.91;4990629;28;20037;-78
2021/07/29 01:28:57;;;;;;;28.10;7.32;;;;;;;29.27;37.56;93927.66;4984949;28;20038;-76
2021/07/29 01:31:23;;;;;;;14.27;6.40;;;;;;;29.00;37.22;93886.69;4990845;28;20085;-77
2021/07/29 01:33:48;;;;;;;24.50;7.85;;;;;;;29.39;36.17;93921.72;4979753;28;20409;-77
2021/07/29 01:36:14;;;;;;;16.23;7.53;;;;;;;29.48;37.18;93927.44;4986608;28;20068;-77
2021/07/29 01:38:39;;;;;;;21.00;7.90;;;;;;;29.44;37.23;93909.59;4987999;28;20396;-77
2021/07/29 01:41:06;;;;;;;38.60;7.93;;;;;;;29.41;36.45;93905.75;4984159;28;20508;-76
2021/07/29 01:43:32;;;;;;;22.25;7.78;;;;;;;29.38;35.36;93906.53;4989010;28;20127;-76
2021/07/29 01:45:58;;;;;;;16.17;6.57;;;;;;;29.45;35.68;93906.47;4985323;28;20049;-78
2021/07/29 01:48:25;;;;;;;19.48;7.40;;;;;;;29.36;36.78;93898.03;4987087;28;20041;-77
2021/07/29 01:50:50;;;;;;;19.17;6.68;;;;;;;29.28;37.44;93899.22;4986135;28;20370;-76
2021/07/29 01:53:16;;;;;;;23.67;7.75;;;;;;;29.28;37.17;93907.38;4990480;28;20069;-77
2021/07/29 01:55:42;;;;;;;20.10;7.38;;;;;;;29.26;36.66;93898.88;4988590;28;20042;-76
2021/07/29 01:58:09;;;;;;;18.42;7.22;;;;;;;29.35;37.75;93918.25;4986279;28;20026;-77
2021/07/29 02:00:39;;;;;;;19.90;6.75;;;;;;;29.31;37.36;93912.06;4988373;28;20089;-76
2021/07/29 02:03:05;;;;;;;26.73;8.25;;;;;;;29.20;36.13;93906.72;4989483;28;20453;-77
2021/07/29 02:05:31;;;;;;;20.85;7.82;;;;;;;29.03;36.87;93906.88;4985513;28;20036;-77
2021/07/29 02:07:57;;;;;;;19.88;8.80;;;;;;;28.85;36.32;93924.13;4987030;28;20045;-77
2021/07/29 02:10:23;;;;;;;21.38;7.35;;;;;;;28.72;37.98;93914.91;4988835;28;20120;-76
2021/07/29 02:12:49;;;;;;;28.52;9.95;;;;;;;28.76;37.75;93923.81;4981713;28;20125;-76
2021/07/29 02:15:15;;;;;;;19.55;7.78;;;;;;;28.92;37.64;93933.41;4990299;28;22670;-78
2021/07/29 02:17:40;;;;;;;20.17;8.50;;;;;;;29.02;37.13;93927.09;4983549;28;20057;-76
2021/07/29 02:20:06;;;;;;;22.42;10.02;;;;;;;29.12;36.71;93927.00;4988500;28;20068;-76
2021/07/29 02:22:32;;;;;;;25.38;9.77;;;;;;;29.26;36.74;93920.66;4985713;28;20057;-76
2021/07/29 02:24:58;;;;;;;20.40;8.27;;;;;;;29.24;37.89;93903.94;4988879;28;20128;-76
2021/07/29 02:27:24;;;;;;;22.73;8.73;;;;;;;29.36;37.42;93919.81;4985248;28;20046;-76
2021/07/29 02:29:53;;;;;;;23.73;9.13;;;;;;;29.33;37.76;93909.69;4985496;28;20080;-78
2021/07/29 02:32:20;;;;;;;23.80;9.10;;;;;;;29.41;36.79;93905.75;4983407;28;20441;-77
2021/07/29 02:34:45;;;;;;;21.92;7.70;;;;;;;29.54;37.04;93914.94;4985855;28;20050;-77
2021/07/29 02:37:11;;;;;;;17.02;8.85;;;;;;;29.49;36.50;93904.50;4985092;28;20048;-77
2021/07/29 02:39:37;;;;;;;25.83;8.35;;;;;;;29.58;36.73;93915.66;4985677;28;20535;-77
2021/07/29 02:42:04;;;;;;;27.67;8.57;;;;;;;29.58;37.09;93912.16;4986113;28;20121;-78
2021/07/29 02:44:29;;;;;;;17.13;7.45;;;;;;;29.52;35.72;93895.50;4986163;28;20018;-77
2021/07/29 02:46:55;;;;;;;18.50;6.80;;;;;;;29.65;36.28;93906.66;4985093;28;20057;-77
2021/07/29 02:49:20;;;;;;;20.45;7.10;;;;;;;29.49;36.67;93899.03;4985804;28;20458;-78
2021/07/29 02:51:46;;;;;;;23.02;7.55;;;;;;;29.44;36.17;93894.03;4987381;28;20097;-77
2021/07/29 02:54:11;;;;;;;19.05;8.57;;;;;;;29.53;37.55;93912.59;4983254;28;20453;-76
2021/07/29 02:56:36;;;;;;;19.33;7.40;;;;;;;29.45;36.41;93908.44;4987152;28;20026;-77
2021/07/29 02:59:03;;;;;;;18.15;6.68;;;;;;;29.46;36.51;93909.97;4988354;28;20496;-76
2021/07/29 03:01:28;;;;;;;22.55;8.18;;;;;;;29.41;36.08;93902.25;4981199;28;20049;-77
2021/07/29 03:03:54;;;;;;;20.02;6.57;;;;;;;29.45;36.18;93905.72;4989359;28;20038;-77
2021/07/29 03:06:19;;;;;;;18.08;7.05;;;;;;;29.35;37.13;93901.16;4992988;28;20050;-77
2021/07/29 03:08:45;;;;;;;23.58;8.43;;;;;;;29.33;36.57;93898.03;4991976;28;20551;-78
2021/07/29 03:11:10;;;;;;;70.60;9.80;;;;;;;29.36;36.79;93899.97;4989733;28;20058;-76
2021/07/29 03:13:36;;;;;;;36.17;8.48;;;;;;;29.27;35.88;93892.25;4992990;28;20042;-77
2021/07/29 03:16:01;;;;;;;27.00;8.05;;;;;;;29.26;36.45;93896.94;4987265;28;20037;-77
2021/07/29 03:18:27;;;;;;;20.67;7.75;;;;;;;29.31;36.50;93909.34;4988607;28;20042;-77
2021/07/29 03:20:52;;;;;;;25.52;7.88;;;;;;;29.19;36.84;93893.50;4986760;28;20040;-75
2021/07/29 03:23:17;;;;;;;24.48;7.25;;;;;;;29.20;36.50;93898.53;4988578;28;20030;-77
2021/07/29 03:25:48;;;;;;;18.73;7.35;;;;;;;29.14;36.84;93919.19;4988983;28;20056;-77
2021/07/29 03:28:13;;;;;;;22.05;7.65;;;;;;;29.16;37.54;93921.53;4990908;28;20488;-78
2021/07/29 03:30:38;;;;;;;15.30;7.40;;;;;;;29.10;37.46;93929.34;4996786;28;20099;-76
2021/07/29 03:33:05;;;;;;;19.40;7.10;;;;;;;28.98;37.78;93931.78;4992088;28;20373;-77
2021/07/29 03:35:32;;;;;;;19.23;7.55;;;;;;;28.81;36.41;93928.81;4987856;28;20026;-77
2021/07/29 03:37:57;;;;;;;18.63;7.32;;;;;;;28.85;38.00;93934.22;4996667;28;20105;-77
2021/07/29 03:40:23;;;;;;;27.50;8.63;;;;;;;28.82;38.75;93935.81;4984800;28;20038;-77
2021/07/29 03:42:48;;;;;;;24.27;9.48;;;;;;;28.74;38.42;93928.84;4987347;28;20185;-77
2021/07/29 03:45:15;;;;;;;23.98;8.85;;;;;;;28.69;37.99;93918.38;4986472;28;20027;-76
2021/07/29 03:47:40;;;;;;;26.05;9.15;;;;;;;28.71;37.38;93932.38;4991950;28;20393;-76
2021/07/29 03:50:06;;;;;;;27.63;9.75;;;;;;;28.62;38.80;93937.47;4986904;28;20042;-78
2021/07/29 03:52:35;;;;;;;24.88;7.80;;;;;;;28.49;39.03;93920.09;4986086;28;20493;-77
2021/07/29 03:55:00;;;;;;;33.90;10.05;;;;;;;28.57;39.55;93946.06;4984871;28;20046;-77
2021/07/29 03:57:26;;;;;;;26.00;9.52;;;;;;;28.46;40.01;93939.91;4987981;28;20405;-76
2021/07/29 03:59:51;;;;;;;21.60;10.05;;;;;;;28.37;40.44;93943.06;4983835;28;20064;-77
2021/07/29 04:02:17;;;;;;;29.67;11.48;;;;;;;28.31;39.92;93939.22;4988725;28;20038;-76
2021/07/29 04:04:42;;;;;;;20.25;8.95;;;;;;;28.35;39.56;93937.25;4988638;28;20041;-77
2021/07/29 04:07:07;;;;;;;24.05;9.18;;;;;;;28.46;40.77;93944.56;4990904;28;20042;-77
2021/07/29 04:09:34;;;;;;;22.35;9.70;;;;;;;28.44;40.70;93947.69;4989213;28;20056;-77
2021/07/29 04:11:59;;;;;;;24.05;10.07;;;;;;;28.42;40.47;93944.59;4990209;28;20576;-77
2021/07/29 04:14:25;;;;;;;27.30;9.82;;;;;;;28.42;40.31;93928.28;5001544;28;20594;-77
2021/07/29 04:16:56;;;;;;;24.50;9.57;;;;;;;28.70;40.01;93949.06;4988213;28;20069;-78
2021/07/29 04:19:22;;;;;;;25.58;10.20;;;;;;;28.72;40.09;93947.53;4989016;28;20125;-77
2021/07/29 04:21:48;;;;;;;22.42;9.10;;;;;;;28.75;38.89;93930.41;4986830;28;20056;-77
2021/07/29 04:24:13;;;;;;;25.67;9.35;;;;;;;28.66;39.00;93919.19;4986246;28;20034;-77
2021/07/29 04:26:40;;;;;;;22.40;8.95;;;;;;;28.72;39.85;93920.34;4991204;28;20034;-77
2021/07/29 04:29:07;;;;;;;22.63;10.27;;;;;;;28.88;40.47;93938.88;4986171;28;20040;-77
2021/07/29 04:31:43;;;;;;;24.35;10.07;;;;;;;28.97;40.50;93941.13;4991846;28;20500;-75
2021/07/29 04:34:09;;;;;;;24.23;10.00;;;;;;;29.03;39.49;93934.09;4992494;28;20049;-77
2021/07/29 04:36:41;;;;;;;18.90;9.32;;;;;;;29.13;40.13;93935.91;4987538;28;20064;-77
2021/07/29 04:39:08;;;;;;;24.88;10.15;;;;;;;29.18;40.38;93932.75;4987065;28;20025;-77
2021/07/29 04:41:43;;;;;;;26.90;10.55;;;;;;;29.23;40.30;93937.78;4984311;28;20019;-77
2021/07/29 04:44:11;;;;;;;25.55;11.05;;;;;;;29.30;38.87;93929.56;4987120;28;20042;-78
2021/07/29 04:46:38;;;;;;;22.92;9.88;;;;;;;29.34;39.52;93921.38;4985378;28;20472;-77
2021/07/29 04:49:04;;;;;;;17.77;9.80;;;;;;;29.55;38.32;93938.28;4990768;28;20042;-78
2021/07/29 04:51:30;;;;;;;20.63;8.70;;;;;;;29.55;38.27;93932.81;4986299;28;20053;-76
2021/07/29 04:53:55;;;;;;;27.98;10.05;;;;;;;29.57;37.73;93922.28;4988763;28;20165;-76
2021/07/29 04:56:21;;;;;;;22.50;9.85;;;;;;;29.58;38.47;93926.56;4987125;28;20017;-77
2021/07/29 04:58:49;;;;;;;24.00;11.00;;;;;;;29.60;38.94;93937.81;4983142;28;20038;-78
2021/07/29 05:01:14;;;;;;;24.48;10.85;;;;;;;29.62;38.72;93921.06;4985585;28;20030;-77
2021/07/29 05:03:40;;;;;;;32.67;10.50;;;;;;;29.79;37.83;93924.78;4988407;28;20046;-77
2021/07/29 05:06:05;;;;;;;26.33;10.57;;;;;;;29.90;37.53;93928.19;4984455;28;20627;-78
2021/07/29 05:08:31;;;;;;;21.30;10.07;;;;;;;29.91;37.78;93916.13;4991002;28;20392;-77
2021/07/29 05:10:56;;;;;;;28.77;10.57;;;;;;;30.10;38.02;93940.00;4986760;28;20537;-77
2021/07/29 05:13:21;;;;;;;25.75;10.63;;;;;;;30.16;37.42;93937.56;4987049;28;20523;-77
2021/07/29 05:15:47;;;;;;;30.42;10.32;;;;;;;30.20;37.01;93938.31;4988629;28;20038;-77
2021/07/29 05:18:12;;;;;;;24.77;9.85;;;;;;;30.20;37.08;93927.41;4989112;28;20437;-77
2021/07/29 05:20:37;;;;;;;23.88;10.63;;;;;;;30.33;35.64;93948.25;4985040;28;20591;-77
2021/07/29 05:23:03;;;;;;;27.75;10.20;;;;;;;30.35;35.47;93932.25;4986122;28;20038;-77
2021/07/29 05:25:29;;;;;;;25.13;10.75;;;;;;;30.54;35.62;93950.69;4984230;28;20050;-75
2021/07/29 05:27:55;;;;;;;26.75;11.45;;;;;;;30.66;34.69;93951.31;4988126;28;20049;-77
2021/07/29 05:30:20;;;;;;;34.78;10.98;;;;;;;30.62;35.59;93947.88;4987566;28;20042;-78
2021/07/29 05:32:46;;;;;;;34.30;12.95;;;;;;;30.64;35.12;93968.13;4981778;28;20422;-77
2021/07/29 05:35:11;;;;;;;44.17;12.00;;;;;;;30.63;34.98;93957.63;4987902;28;20041;-77
2021/07/29 05:37:38;;;;;;;34.30;11.63;;;;;;;30.63;35.63;93955.66;4989484;28;20132;-77
2021/07/29 05:40:08;;;;;;;29.77;10.98;;;;;;;30.79;34.54;93950.34;4983669;28;20034;-76
2021/07/29 05:42:34;;;;;;;24.83;10.02;;;;;;;30.86;33.82;93963.09;4988727;28;20041;-77
2021/07/29 05:45:00;;;;;;;33.60;13.15;;;;;;;30.66;33.55;93951.31;4989407;28;20029;-77
2021/07/29 05:47:25;;;;;;;27.05;10.90;;;;;;;30.78;34.22;93953.50;4984403;28;20030;-77
2021/07/29 05:49:51;;;;;;;26.95;10.77;;;;;;;30.74;33.81;93950.81;4988368;28;20030;-78
2021/07/29 05:52:16;;;;;;;24.92;11.32;;;;;;;30.94;34.57;93970.00;4987686;28;20772;-77
2021/07/29 05:54:41;;;;;;;30.17;11.82;;;;;;;30.95;34.21;93966.09;4985131;28;20640;-78
2021/07/29 05:57:07;;;;;;;28.65;11.13;;;;;;;30.82;32.79;93940.56;4982751;28;20447;-77
2021/07/29 05:59:33;;;;;;;35.38;13.10;;;;;;;30.88;32.91;93966.97;4987421;28;20762;-77
2021/07/29 06:01:58;;;;;;;32.97;10.48;;;;;;;30.79;33.63;93957.78;4986177;28;20048;-76
2021/07/29 06:04:23;;;;;;;37.53;12.38;;;;;;;30.73;35.34;93959.41;4986690;28;20741;-77
2021/07/29 06:06:49;;;;;;;35.75;12.75;;;;;;;30.79;36.05;93985.81;4986524;28;20056;-77
2021/07/29 06:09:14;;;;;;;28.60;12.02;;;;;;;30.77;35.90;93981.97;4984568;28;20499;-77
2021/07/29 06:11:39;;;;;;;38.28;12.70;;;;;;;30.78;36.38;93983.50;4985749;28;20058;-77
2021/07/29 06:14:05;;;;;;;30.73;13.15;;;;;;;30.80;36.21;93983.84;4984685;28;20466;-77
2021/07/29 06:16:30;;;;;;;38.33;11.73;;;;;;;30.83;35.78;93991.22;4984449;28;20049;-77
2021/07/29 06:19:06;;;;;;;30.35;11.95;;;;;;;30.85;35.86;93975.19;4986831;28;20053;-77
2021/07/29 06:21:33;;;;;;;31.92;13.35;;;;;;;30.95;35.32;93982.47;4985337;28;20567;-76
2021/07/29 06:23:58;;;;;;;33.38;14.30;;;;;;;30.96;35.28;93979.31;4990662;28;20041;-77
2021/07/29 06:26:24;;;;;;;32.90;12.77;;;;;;;30.91;34.56;93982.53;4984638;28;20053;-76
2021/07/29 06:28:50;;;;;;;27.95;10.95;;;;;;;30.96;34.24;93978.56;4983478;28;20476;-78
2021/07/29 06:31:15;;;;;;;36.15;12.00;;;;;;;31.16;34.70;93997.75;4981744;28;20801;-77
2021/07/29 06:33:40;;;;;;;29.15;12.32;;;;;;;31.09;33.89;93976.81;4983877;28;20105;-76
2021/07/29 06:36:06;;;;;;;34.53;12.35;;;;;;;31.24;33.84;93978.13;4980291;28;20045;-77
2021/07/29 06:38:32;;;;;;;37.28;11.40;;;;;;;31.15;32.90;93958.00;4982285;28;20018;-77
2021/07/29 06:40:58;;;;;;;28.58;14.50;;;;;;;31.19;32.66;93942.31;4985308;28;20042;-78
2021/07/29 06:43:24;;;;;;;37.08;11.95;;;;;;;31.45;33.26;93987.13;4984209;28;20086;-77
2021/07/29 06:45:49;;;;;;;30.17;11.95;;;;;;;31.36;33.65;93939.31;4978650;28;20087;-77
2021/07/29 06:48:16;;;;;;;26.88;11.43;;;;;;;31.61;32.51;93962.69;4982185;28;20037;-78
2021/07/29 06:50:42;;;;;;;32.03;11.77;;;;;;;31.82;32.66;93962.28;4983150;28;20026;-77
2021/07/29 06:53:07;;;;;;;31.50;12.32;;;;;;;31.61;31.99;93924.44;4979188;28;20128;-77
2021/07/29 06:55:33;;;;;;;31.90;11.77;;;;;;;31.96;33.08;93964.75;4982534;28;20038;-77
2021/07/29 06:57:58;;;;;;;25.23;11.18;;;;;;;32.04;33.40;93968.88;4979877;28;20066;-77
2021/07/29 07:00:23;;;;;;;29.02;10.90;;;;;;;32.02;33.25;93965.78;4979830;28;20065;-77
2021/07/29 07:02:49;;;;;;;28.08;11.75;;;;;;;32.15;33.51;93958.53;4972014;28;20117;-77
2021/07/29 07:05:14;;;;;;;33.65;11.40;;;;;;;32.28;32.42;93966.09;4974455;28;20045;-79
2021/07/29 07:07:40;;;;;;;34.83;12.00;;;;;;;32.48;33.57;93955.91;4976636;28;20125;-78
2021/07/29 07:10:06;;;;;;;32.22;11.63;;;;;;;32.54;31.25;93954.22;4975146;28;20512;-77
2021/07/29 07:12:31;;;;;;;30.70;11.65;;;;;;;32.38;31.65;93938.53;4981614;28;20052;-78
2021/07/29 07:14:56;;;;;;;26.25;11.13;;;;;;;32.12;31.92;93926.56;4977338;28;20038;-78
2021/07/29 07:17:22;;;;;;;24.83;11.45;;;;;;;32.27;32.41;93945.41;4982836;28;20536;-77
2021/07/29 07:19:48;;;;;;;25.00;10.07;;;;;;;32.18;31.30;93938.56;4986518;28;20038;-77
2021/07/29 07:22:14;;;;;;;26.95;11.18;;;;;;;32.09;31.38;93932.84;4984882;28;20038;-78
2021/07/29 07:24:39;;;;;;;21.23;10.75;;;;;;;32.35;33.01;93944.06;4972842;28;20184;-79
2021/07/29 07:27:07;;;;;;;27.02;10.82;;;;;;;32.58;31.02;93949.44;4975193;28;20797;-77
2021/07/29 07:29:34;;;;;;;31.55;11.30;;;;;;;32.49;30.92;93965.66;4983907;28;20062;-80
2021/07/29 07:32:00;;;;;;;27.20;11.43;;;;;;;32.52;30.53;93954.63;4982454;28;21020;-77
2021/07/29 07:34:25;;;;;;;32.50;11.32;;;;;;;32.64;31.15;93942.28;4981998;28;20149;-79
2021/07/29 07:36:51;;;;;;;30.08;11.32;;;;;;;32.73;31.36;93950.69;4983164;28;20088;-79
2021/07/29 07:39:16;;;;;;;26.20;10.82;;;;;;;32.77;30.51;93954.09;4982866;28;20520;-79
2021/07/29 07:41:41;;;;;;;30.30;11.15;;;;;;;32.92;30.56;93952.56;4978206;28;20393;-79
2021/07/29 07:44:07;;;;;;;31.52;10.90;;;;;;;33.07;31.49;93972.94;4981169;28;20038;-79
2021/07/29 07:46:33;;;;;;;28.45;11.40;;;;;;;33.09;31.44;93953.34;4979912;28;20121;-78
2021/07/29 07:48:58;;;;;;;26.30;10.80;;;;;;;33.29;30.84;93964.22;4982440;28;20046;-78
2021/07/29 07:51:24;;;;;;;25.67;10.00;;;;;;;33.37;31.70;93952.69;4985645;28;20035;-81
2021/07/29 07:53:49;;;;;;;36.20;12.55;;;;;;;33.34;29.88;93964.47;4983645;28;20031;-79
2021/07/29 07:56:14;;;;;;;26.58;10.55;;;;;;;33.29;30.52;93942.31;4984102;28;20037;-78
2021/07/29 07:58:41;;;;;;;21.38;11.05;;;;;;;33.39;30.21;93960.44;4995104;28;20440;-79
2021/07/29 08:01:06;;;;;;;27.95;11.27;;;;;;;33.53;31.78;93960.84;4987090;28;20042;-78
2021/07/29 08:03:31;;;;;;;31.92;12.98;;;;;;;33.55;30.93;93944.00;4985732;28;20052;-78
2021/07/29 08:06:01;;;;;;;29.33;10.38;;;;;;;33.67;30.62;93959.75;4988997;28;20389;-79
2021/07/29 08:08:27;;;;;;;35.20;12.25;;;;;;;33.39;30.57;93960.44;4979819;28;20029;-79
2021/07/29 08:10:53;;;;;;;32.72;11.63;;;;;;;33.29;30.27;93950.53;4980306;28;20038;-79
2021/07/29 08:13:18;;;;;;;30.13;11.90;;;;;;;33.37;30.93;93952.69;4977205;28;20723;-81
2021/07/29 08:15:44;;;;;;;27.38;10.90;;;;;;;33.49;30.80;93942.97;4972905;28;20042;-79
2021/07/29 08:18:11;;;;;;;25.40;11.20;;;;;;;33.62;30.01;93952.03;4982536;28;20045;-79
2021/07/29 08:20:39;;;;;;;25.75;11.02;;;;;;;33.43;30.40;93937.25;4986093;28;20033;-80
2021/07/29 08:23:05;;;;;;;25.17;10.68;;;;;;;33.69;32.90;93940.13;4985828;28;20043;-80
2021/07/29 08:25:30;;;;;;;31.30;11.93;;;;;;;33.58;30.17;93925.91;4985508;28;20541;-79
2021/07/29 08:27:56;;;;;;;28.42;11.27;;;;;;;33.79;31.20;93937.09;4986479;28;20409;-79
2021/07/29 08:30:21;;;;;;;29.48;11.05;;;;;;;33.93;31.36;93931.22;4981018;28;20037;-79
2021/07/29 08:32:47;;;;;;;27.60;11.43;;;;;;;33.89;30.26;93933.31;4978829;28;20263;-80
2021/07/29 08:35:12;;;;;;;30.95;12.60;;;;;;;33.78;29.58;93932.81;4983787;28;20034;-80
2021/07/29 08:37:44;;;;;;;19.30;11.32;;;;;;;33.81;29.80;93929.22;4985636;28;20042;-79
2021/07/29 08:40:10;;;;;;;30.95;12.68;;;;;;;34.13;31.23;93938.50;4985567;28;20049;-77
2021/07/29 08:42:36;;;;;;;25.63;10.85;;;;;;;34.25;29.77;93932.34;4985836;28;20045;-79
2021/07/29 08:45:01;;;;;;;38.00;11.70;;;;;;;34.36;30.29;93935.50;4990166;28;20022;-80
2021/07/29 08:47:42;;;;;;;28.27;12.00;;;;;;;34.22;29.08;93927.69;4979630;28;20679;-79
2021/07/29 08:50:09;;;;;;;35.75;12.35;;;;;;;34.07;29.86;93930.06;4957441;28;20038;-77
2021/07/29 08:52:35;;;;;;;32.85;11.57;;;;;;;34.30;29.70;93934.53;4988582;28;20047;-78
2021/07/29 08:55:01;;;;;;;28.10;11.65;;;;;;;34.39;30.07;93931.91;4983406;28;20081;-78
2021/07/29 08:57:31;;;;;;;25.40;11.30;;;;;;;34.15;29.78;93914.19;4981802;28;20455;-78
2021/07/29 09:00:00;;;;;;;29.83;10.77;;;;;;;34.45;29.10;93927.44;4976879;28;20034;-78
2021/07/29 09:02:27;;;;;;;28.83;11.82;;;;;;;34.53;28.31;93920.50;4981894;28;20104;-77
2021/07/29 09:05:21;;;;;;;30.85;11.65;;;;;;;34.74;28.52;93930.88;4981433;28;20588;-77
2021/07/29 09:08:04;;;;;;;29.27;12.43;;;;;;;34.61;28.36;93932.78;4977973;28;20049;-78
2021/07/29 09:10:31;;;;;;;31.65;12.65;;;;;;;34.69;28.88;93927.91;4987226;28;20121;-77
2021/07/29 09:13:17;;;;;;;26.60;11.32;;;;;;;34.36;28.83;93910.81;4982789;28;20046;-78
2021/07/29 09:15:43;;;;;;;31.33;11.80;;;;;;;34.55;28.12;93923.56;4981119;28;20046;-78
2021/07/29 09:18:10;;;;;;;28.85;11.18;;;;;;;34.53;28.16;93876.59;4990961;28;20037;-78
2021/07/29 09:20:37;;;;;;;34.55;11.80;;;;;;;34.73;28.27;93901.88;4983260;28;20620;-79
2021/07/29 09:23:19;;;;;;;32.03;11.45;;;;;;;34.83;28.16;93910.22;4980860;28;20537;-78
2021/07/29 09:25:46;;;;;;;25.70;11.95;;;;;;;34.70;29.24;93902.72;4989668;28;20045;-80
2021/07/29 09:28:35;;;;;;;38.33;10.93;;;;;;;34.86;28.41;93904.59;4977568;28;20140;-78
2021/07/29 09:31:23;;;;;;;31.25;11.15;;;;;;;34.99;28.21;93918.31;4988828;28;20046;-79
2021/07/29 09:34:00;;;;;;;29.33;12.25;;;;;;;34.94;26.98;93905.16;4983346;28;20070;-78
2021/07/29 09:36:33;;;;;;;33.65;10.60;;;;;;;35.01;26.25;93893.91;4984476;28;20652;-79
2021/07/29 09:39:22;;;;;;;31.67;10.33;;;;;;;35.18;26.79;93903.59;4985491;28;20038;-77
2021/07/29 09:41:50;;;;;;;28.05;10.88;;;;;;;35.12;26.33;93900.59;4982073;28;20271;-76
2021/07/29 09:44:40;;;;;;;36.92;12.30;;;;;;;35.33;25.37;93899.16;4985056;28;20042;-77
2021/07/29 09:47:06;;;;;;;27.85;10.57;;;;;;;35.29;25.20;93909.47;4984560;28;20144;-78
2021/07/29 09:49:33;;;;;;;26.25;10.68;;;;;;;35.33;25.40;93904.66;4986871;28;20401;-77
2021/07/29 09:52:01;;;;;;;28.65;10.02;;;;;;;35.38;25.38;93901.34;4985848;28;20394;-77
2021/07/29 09:54:27;;;;;;;27.83;9.43;;;;;;;35.32;25.58;93891.34;4986474;28;20054;-78
2021/07/29 09:56:52;;;;;;;24.00;9.63;;;;;;;35.41;25.47;93900.44;4986968;28;20351;-79
2021/07/29 09:59:18;;;;;;;28.67;10.95;;;;;;;35.47;25.37;93906.91;4988874;28;20046;-77
2021/07/29 10:01:43;;;;;;;27.65;9.52;;;;;;;35.45;25.90;93898.34;4984082;28;20042;-77
2021/07/29 10:04:11;;;;;;;31.50;10.65;;;;;;;35.60;25.62;93909.63;4985496;28;20516;-77
2021/07/29 10:06:40;;;;;;;29.38;9.88;;;;;;;35.54;24.81;93876.41;4994824;28;20048;-77
2021/07/29 10:09:12;;;;;;;34.30;10.18;;;;;;;35.68;24.53;93897.16;4987624;28;20129;-78
2021/07/29 10:11:41;;;;;;;23.83;8.98;;;;;;;35.58;24.92;93893.56;4987006;28;20161;-78
2021/07/29 10:14:09;;;;;;;24.63;10.40;;;;;;;35.57;25.60;93880.28;4987058;28;20500;-76
2021/07/29 10:16:48;;;;;;;29.42;9.50;;;;;;;35.78;24.75;93884.25;4986542;28;20096;-78
2021/07/29 10:19:15;;;;;;;25.92;9.85;;;;;;;35.94;25.09;93886.81;4990313;28;20046;-77
2021/07/29 10:21:41;;;;;;;27.15;9.63;;;;;;;36.01;25.58;93892.06;4990811;28;20039;-77
2021/07/29 10:24:09;;;;;;;28.73;10.55;;;;;;;36.04;25.41;93891.16;4988066;28;20976;-77
2021/07/29 10:26:55;;;;;;;31.48;9.23;;;;;;;36.06;24.72;93894.25;4985060;28;20057;-78
2021/07/29 10:29:30;;;;;;;23.08;9.30;;;;;;;35.77;25.52;93874.50;4994932;28;20452;-77
2021/07/29 10:31:59;;;;;;;31.17;9.68;;;;;;;35.87;25.76;93878.84;4984337;28;20054;-78
2021/07/29 10:34:35;;;;;;;24.63;9.45;;;;;;;36.10;25.91;93883.88;4985374;28;20046;-78
2021/07/29 10:37:03;;;;;;;25.55;8.90;;;;;;;36.00;24.82;93863.03;4983145;28;20564;-79
2021/07/29 10:39:29;;;;;;;28.48;9.45;;;;;;;36.03;24.67;93862.13;4987680;28;20061;-76
2021/07/29 10:41:57;;;;;;;22.98;9.65;;;;;;;36.12;24.47;93869.69;4983600;28;20065;-76
2021/07/29 10:44:32;;;;;;;24.73;9.73;;;;;;;36.15;24.40;93864.06;4982140;28;20193;-77
2021/07/29 10:46:58;;;;;;;25.80;9.20;;;;;;;36.29;24.35;93871.00;4983919;28;20343;-77
2021/07/29 10:49:49;;;;;;;28.65;9.57;;;;;;;36.39;23.59;93861.56;4987331;28;20512;-76
2021/07/29 10:52:16;;;;;;;36.78;10.77;;;;;;;36.35;24.45;93864.47;4985968;28;20543;-77
2021/07/29 10:54:43;;;;;;;22.58;7.93;;;;;;;36.31;23.52;93857.56;4980842;28;20053;-77
2021/07/29 10:57:10;;;;;;;31.13;7.95;;;;;;;36.40;23.62;93852.88;4987789;28;20018;-77
2021/07/29 10:59:37;;;;;;;29.38;9.32;;;;;;;36.50;23.24;93856.44;4983569;28;20113;-77
2021/07/29 11:02:07;;;;;;;26.02;8.68;;;;;;;36.67;21.45;93859.72;4985763;28;20166;-76
2021/07/29 11:04:56;;;;;;;32.35;7.38;;;;;;;36.61;21.81;93845.00;4982903;28;20043;-78
2021/07/29 11:07:21;;;;;;;40.95;9.52;;;;;;;36.70;22.00;93856.81;4979534;28;20077;-77
2021/07/29 11:09:47;;;;;;;30.80;8.93;;;;;;;36.66;21.36;93852.66;4983805;28;20509;-78
2021/07/29 11:12:14;;;;;;;22.65;7.10;;;;;;;36.72;21.73;93848.88;4981143;28;20025;-76
2021/07/29 11:14:40;;;;;;;22.80;7.78;;;;;;;36.84;21.54;93858.25;4983935;28;20045;-77
2021/07/29 11:17:05;;;;;;;25.10;8.13;;;;;;;36.90;21.38;93850.91;4982603;28;20493;-78
2021/07/29 11:19:48;;;;;;;27.75;8.20;;;;;;;36.75;21.61;93831.44;4984870;28;20597;-77
2021/07/29 11:22:15;;;;;;;22.17;7.88;;;;;;;36.80;21.96;93843.88;4984285;28;20050;-77
2021/07/29 11:24:40;;;;;;;32.63;7.10;;;;;;;36.96;20.13;93842.81;4988094;28;20058;-77